Chaiten, Chile
Current Conditions -  °F | °C
As of 8:00 AM on Sunday 21 Dec 2014 (Local Time) from SCON Reporting Station
Clear Clear  
Wind Chill: 52°   Ceiling: Unl
Heat Index: 52°   Visibility: 6mi
Dew Point: 37°   Wind: 8mph
Humidity: 58%   Direction: 200°SSW
Pressure: 30.18"   Gusts: NA
Location:  42.92°S, 72.71°W
Report Text: SCON 211200Z AUTO 20007KT CAVOK 11/03 Q1022
Loading
Personal Weather Stations






























Interactive Weather Map New forecast layout! Learn more

10-Day Weather Forecast

Advertisements
Track Severe Weather on mobile